Decoded Metar for KMCX ( in ) (IATA:) | Meteo·Mobile Aviation Weather
aviador You're here:

KMCX Decoded Metar

in
Report Time2019-03-23 08:35:00
UTC Time2019-03-23 08:34:07
Flight Rules vfr VFR
Wind300° at 04 kt
W.Decomp.*RWY 36: 2.0 kt HW 3.5 kt LCW
W.Rank300° ranks 15
Current wind is below 300° avg. (8.5)
Visibility9999 m
Phenomena:N/A
Clouds:N/A
Expected CloudBase > 1,200 ft AGL from Temp-Dew spread
CeilingNone
Temp-4°C
Dew Point-7°C (80% RH)
AAT-8.2°C
QNH1025 hPa
Raw Report
KMCX 230835Z AUTO 30004KT 10SM CLR M04/M07 A3026 RMK AO2
T10411066=

Extra information for KMCX:More info

Social comments